Time;durP1;ratioP1;P1;durP2;ratioP2;P2;SDS_P1;SDS_P2;PMS_P1;PMS_P2;Temp;Humidity;BMP_temperature;BMP_pressure;BME280_temperature;BME280_humidity;BME280_pressure;Samples;Min_cycle;Max_cycle;Signal;HPM_P1;HPM_P2
2021/09/12 00:02:13;;;;;;;20.27;9.13;;;;;;;17.90;100.00;101718.97;5083159;28;20033;-64
2021/09/12 00:04:39;;;;;;;26.35;9.73;;;;;;;17.88;100.00;101713.78;5085575;28;20113;-61
2021/09/12 00:07:05;;;;;;;33.10;9.50;;;;;;;17.89;100.00;101710.00;5083862;28;20044;-61
2021/09/12 00:09:31;;;;;;;23.38;10.13;;;;;;;17.88;100.00;101718.38;5080925;28;20044;-61
2021/09/12 00:11:56;;;;;;;22.75;9.00;;;;;;;17.89;100.00;101714.63;5080432;28;20371;-60
2021/09/12 00:14:22;;;;;;;25.67;9.02;;;;;;;17.82;100.00;101703.84;5064055;28;20039;-59
2021/09/12 00:16:47;;;;;;;24.23;9.13;;;;;;;17.80;100.00;101703.25;5079958;28;20045;-59
2021/09/12 00:19:13;;;;;;;17.52;7.38;;;;;;;17.81;100.00;101699.50;5066970;28;20059;-60
2021/09/12 00:21:38;;;;;;;19.83;8.15;;;;;;;17.77;100.00;101703.69;5085590;28;20092;-59
2021/09/12 00:24:04;;;;;;;15.85;8.00;;;;;;;17.76;100.00;101705.56;5083353;28;20468;-61
2021/09/12 00:26:30;;;;;;;17.00;8.25;;;;;;;17.79;100.00;101701.59;5067427;28;20061;-61
2021/09/12 00:28:55;;;;;;;20.20;8.07;;;;;;;17.79;100.00;101701.59;5066883;28;20434;-60
2021/09/12 00:31:21;;;;;;;20.48;8.32;;;;;;;17.78;100.00;101691.81;5083797;28;20066;-60
2021/09/12 00:33:47;;;;;;;17.58;8.38;;;;;;;17.71;100.00;101694.59;5085460;28;20085;-60
2021/09/12 00:36:12;;;;;;;17.67;6.95;;;;;;;19.47;100.00;101695.94;5084754;28;20074;-60
2021/09/12 00:38:38;;;;;;;14.50;7.22;;;;;;;20.78;100.00;101688.41;5084181;28;20111;-60
2021/09/12 00:41:03;;;;;;;16.00;6.07;;;;;;;20.88;100.00;101682.34;5080905;28;20040;-61
2021/09/12 00:43:29;;;;;;;15.23;6.75;;;;;;;20.86;100.00;101683.66;5075825;28;20025;-60
2021/09/12 00:45:56;;;;;;;18.67;6.65;;;;;;;20.76;100.00;101684.25;5057687;28;20125;-61
2021/09/12 00:48:22;;;;;;;20.60;6.93;;;;;;;20.61;100.00;101677.47;5075963;28;20051;-61
2021/09/12 00:50:49;;;;;;;15.00;6.43;;;;;;;17.83;100.00;101683.03;5057717;28;20044;-60
2021/09/12 00:53:17;;;;;;;13.17;6.83;;;;;;;17.78;100.00;101671.00;5076119;28;20430;-61
2021/09/12 00:55:45;;;;;;;21.00;7.07;;;;;;;17.34;100.00;101680.97;5075480;28;20036;-60
2021/09/12 00:58:15;;;;;;;15.10;7.33;;;;;;;17.29;100.00;101672.69;5076052;28;20040;-61
2021/09/12 01:00:43;;;;;;;16.30;7.07;;;;;;;17.30;100.00;101677.88;5075670;28;20036;-58
2021/09/12 01:03:08;;;;;;;19.60;7.53;;;;;;;17.25;100.00;101677.69;5075621;28;20028;-61
2021/09/12 01:05:34;;;;;;;19.65;7.05;;;;;;;17.23;100.00;101679.78;5075648;28;20094;-61
2021/09/12 01:07:59;;;;;;;16.83;7.15;;;;;;;17.16;100.00;101685.25;5075147;28;20036;-60
2021/09/12 01:10:25;;;;;;;16.65;7.25;;;;;;;17.11;100.00;101678.88;5075272;28;20045;-61
2021/09/12 01:12:50;;;;;;;23.10;6.97;;;;;;;17.05;100.00;101684.06;5075139;28;20036;-62
2021/09/12 01:15:16;;;;;;;18.85;6.50;;;;;;;18.39;100.00;101673.06;5075675;28;20033;-61
2021/09/12 01:17:41;;;;;;;14.63;6.30;;;;;;;19.23;100.00;101681.50;5075538;28;20127;-61
2021/09/12 01:20:07;;;;;;;20.73;6.82;;;;;;;17.23;100.00;101684.38;5057810;28;20116;-61
2021/09/12 01:22:33;;;;;;;17.45;6.95;;;;;;;16.94;100.00;101689.31;5041019;28;20049;-61
2021/09/12 01:24:59;;;;;;;19.88;6.35;;;;;;;16.85;100.00;101683.38;5075003;28;20124;-61
2021/09/12 01:27:25;;;;;;;18.77;6.78;;;;;;;16.80;100.00;101683.16;5075127;28;20070;-60
2021/09/12 01:29:51;;;;;;;14.35;5.47;;;;;;;16.77;100.00;101679.84;5074454;28;20039;-60
2021/09/12 01:32:16;;;;;;;14.10;6.03;;;;;;;16.76;100.00;101688.19;5075079;28;20041;-61
2021/09/12 01:34:42;;;;;;;16.95;6.40;;;;;;;16.67;100.00;101686.75;5040537;28;20048;-61
2021/09/12 01:37:07;;;;;;;14.00;5.63;;;;;;;16.67;100.00;101682.22;5074688;28;20054;-61
2021/09/12 01:39:33;;;;;;;14.48;5.35;;;;;;;16.59;100.00;101685.13;5056257;28;20349;-60
2021/09/12 01:41:58;;;;;;;13.00;4.97;;;;;;;16.55;100.00;101676.66;5074713;28;20040;-61
2021/09/12 01:44:24;;;;;;;10.38;5.93;;;;;;;16.56;100.00;101682.88;5057401;28;20048;-62
2021/09/12 01:46:52;;;;;;;12.57;5.18;;;;;;;16.49;100.00;101677.50;5074490;28;20044;-61
2021/09/12 01:49:17;;;;;;;16.67;6.07;;;;;;;16.37;100.00;101674.63;5074818;28;20032;-61
2021/09/12 01:51:43;;;;;;;14.85;6.20;;;;;;;16.42;100.00;101674.00;5076617;28;20043;-60
2021/09/12 01:54:09;;;;;;;17.88;6.45;;;;;;;16.36;100.00;101677.56;5082269;28;20491;-61
2021/09/12 01:56:34;;;;;;;16.42;5.97;;;;;;;16.37;100.00;101677.34;5077408;28;20048;-61
2021/09/12 01:59:00;;;;;;;17.73;6.53;;;;;;;16.28;100.00;101667.84;5076272;28;20036;-62
2021/09/12 02:01:25;;;;;;;15.57;5.63;;;;;;;16.28;100.00;101673.22;5076732;28;20040;-60
2021/09/12 02:03:51;;;;;;;20.55;5.88;;;;;;;16.22;100.00;101671.38;5094625;28;20028;-61
2021/09/12 02:06:16;;;;;;;16.50;5.88;;;;;;;16.08;100.00;101671.41;5060073;28;20056;-61
2021/09/12 02:08:42;;;;;;;17.45;5.93;;;;;;;15.97;100.00;101677.47;5094749;28;20066;-61
2021/09/12 02:11:09;;;;;;;14.90;5.97;;;;;;;15.88;100.00;101680.38;5076098;28;20146;-62
2021/09/12 02:13:34;;;;;;;15.47;6.67;;;;;;;15.84;100.00;101684.50;5076723;28;20047;-60
2021/09/12 02:16:00;;;;;;;18.35;6.57;;;;;;;15.89;100.00;101690.13;5056374;28;20134;-61
2021/09/12 02:18:25;;;;;;;16.27;6.28;;;;;;;15.82;100.00;101689.28;5056590;28;20037;-61
2021/09/12 02:20:51;;;;;;;14.55;6.53;;;;;;;15.85;100.00;101688.88;5056401;28;20119;-61
2021/09/12 02:23:16;;;;;;;20.45;6.93;;;;;;;15.83;100.00;101690.13;5056201;28;20047;-61
2021/09/12 02:25:42;;;;;;;16.40;7.57;;;;;;;15.74;100.00;101689.53;5074111;28;20492;-61
2021/09/12 02:28:07;;;;;;;17.53;6.83;;;;;;;15.67;100.00;101694.91;5073759;28;20036;-61
2021/09/12 02:30:33;;;;;;;16.98;6.57;;;;;;;15.63;100.00;101691.78;5074043;28;20036;-61
2021/09/12 02:32:59;;;;;;;15.00;7.40;;;;;;;15.55;100.00;101689.31;5073872;28;20064;-62
2021/09/12 02:35:24;;;;;;;20.92;7.25;;;;;;;15.55;100.00;101693.88;5073924;28;20467;-62
2021/09/12 02:37:50;;;;;;;15.32;6.75;;;;;;;15.49;100.00;101692.84;5073680;28;20391;-60
2021/09/12 02:40:15;;;;;;;12.57;6.38;;;;;;;15.45;100.00;101688.88;5072765;28;20037;-60
2021/09/12 02:42:42;;;;;;;28.70;7.70;;;;;;;15.46;100.00;101682.50;5058309;28;20036;-60
2021/09/12 02:45:10;;;;;;;24.47;7.37;;;;;;;15.31;100.00;101679.97;5066074;28;20472;-60
2021/09/12 02:47:36;;;;;;;19.17;7.33;;;;;;;15.31;100.00;101686.22;5073536;28;20028;-61
2021/09/12 02:50:02;;;;;;;;;;;;;;;15.34;100.00;101684.97;5073385;28;20111;-61
2021/09/12 02:52:27;;;;;;;20.23;7.30;;;;;;;15.22;100.00;101692.81;5055712;28;20016;-61
2021/09/12 02:54:53;;;;;;;21.30;7.50;;;;;;;15.23;100.00;101688.28;5072367;28;20051;-60
2021/09/12 02:57:18;;;;;;;28.97;7.43;;;;;;;15.24;100.00;101690.78;5071889;28;20060;-61
2021/09/12 02:59:44;;;;;;;23.73;9.00;;;;;;;15.18;100.00;101694.28;5055629;28;20070;-61
2021/09/12 03:02:09;;;;;;;21.75;8.23;;;;;;;15.01;100.00;101691.97;5055751;28;20048;-60
2021/09/12 03:04:35;;;;;;;21.95;8.18;;;;;;;15.02;100.00;101688.25;5073345;28;20044;-61
2021/09/12 03:07:00;;;;;;;18.48;7.78;;;;;;;15.05;100.00;101690.53;5072953;28;20048;-60
2021/09/12 03:09:26;;;;;;;21.52;8.43;;;;;;;14.98;100.00;101692.38;5055346;28;20041;-61
2021/09/12 03:11:51;;;;;;;20.50;8.40;;;;;;;14.99;100.00;101688.66;5073085;28;20056;-60
2021/09/12 03:14:18;;;;;;;27.10;9.68;;;;;;;15.00;100.00;101690.31;5038465;28;20108;-61
2021/09/12 03:16:44;;;;;;;24.07;9.77;;;;;;;15.01;100.00;101689.28;5073068;28;20485;-61
2021/09/12 03:19:10;;;;;;;23.75;9.77;;;;;;;14.94;100.00;101683.03;5072743;28;20041;-61
2021/09/12 03:21:36;;;;;;;25.58;9.43;;;;;;;14.89;100.00;101686.38;5073079;28;20038;-61
2021/09/12 03:24:01;;;;;;;34.10;8.65;;;;;;;14.89;100.00;101689.06;5055008;28;20048;-60
2021/09/12 03:26:27;;;;;;;26.27;9.52;;;;;;;14.94;100.00;101691.13;5072889;28;20449;-60
2021/09/12 03:28:52;;;;;;;22.85;8.82;;;;;;;14.83;100.00;101689.84;5073215;28;20484;-60
2021/09/12 03:31:18;;;;;;;25.13;9.80;;;;;;;14.86;100.00;101683.25;5072852;28;20048;-61
2021/09/12 03:33:43;;;;;;;22.00;9.77;;;;;;;14.79;100.00;101672.44;5071987;28;20400;-60
2021/09/12 03:36:09;;;;;;;24.17;10.27;;;;;;;14.73;100.00;101679.47;5054791;28;20068;-61
2021/09/12 03:38:34;;;;;;;33.90;12.07;;;;;;;14.77;100.00;101685.28;5038486;28;20579;-61
2021/09/12 03:41:00;;;;;;;22.67;9.90;;;;;;;14.70;100.00;101679.03;5054690;28;20040;-60
2021/09/12 03:43:26;;;;;;;23.13;10.23;;;;;;;14.68;100.00;101687.28;5072901;28;20369;-61
2021/09/12 03:45:51;;;;;;;25.27;11.35;;;;;;;14.68;100.00;101679.22;5073369;28;20045;-61
2021/09/12 03:48:17;;;;;;;36.92;12.40;;;;;;;14.61;100.00;101681.88;5072712;28;20407;-61
2021/09/12 03:50:42;;;;;;;28.25;12.50;;;;;;;14.57;100.00;101682.50;5072818;28;20055;-61
2021/09/12 03:53:08;;;;;;;32.67;13.27;;;;;;;14.57;100.00;101688.69;5072153;28;20040;-60
2021/09/12 03:55:33;;;;;;;32.73;13.20;;;;;;;14.58;100.00;101684.16;5072816;28;20044;-61
2021/09/12 03:57:59;;;;;;;33.42;13.38;;;;;;;14.55;100.00;101687.25;5072919;28;20059;-62
2021/09/12 04:00:24;;;;;;;26.90;12.33;;;;;;;14.55;100.00;101682.69;5072393;28;20519;-61
2021/09/12 04:02:50;;;;;;;30.07;13.37;;;;;;;14.55;100.00;101679.19;5054837;28;20269;-62
2021/09/12 04:05:15;;;;;;;32.97;13.20;;;;;;;14.45;100.00;101677.69;5054367;28;20339;-61
2021/09/12 04:07:41;;;;;;;42.55;14.88;;;;;;;14.39;100.00;101670.41;5072456;28;20048;-62
2021/09/12 04:10:07;;;;;;;28.97;13.33;;;;;;;14.36;100.00;101681.59;5072500;28;20044;-61
2021/09/12 04:12:32;;;;;;;;;;;;;;;14.32;100.00;101674.94;5072988;28;20336;-61
2021/09/12 04:14:58;;;;;;;29.67;14.70;;;;;;;14.34;100.00;101672.88;5072402;28;20054;-62
2021/09/12 04:17:24;;;;;;;38.47;15.25;;;;;;;14.26;100.00;101667.66;5072368;28;20037;-62
2021/09/12 04:19:49;;;;;;;32.33;15.65;;;;;;;14.29;100.00;101678.00;5072638;28;20129;-61
2021/09/12 04:22:15;;;;;;;39.77;16.33;;;;;;;14.19;100.00;101673.84;5054261;28;20491;-61
2021/09/12 04:24:40;;;;;;;30.98;15.80;;;;;;;14.22;100.00;101672.63;5072110;28;20438;-61
2021/09/12 04:27:06;;;;;;;32.30;16.35;;;;;;;14.17;100.00;101675.91;5072411;28;20047;-61
2021/09/12 04:29:31;;;;;;;28.88;15.82;;;;;;;14.17;100.00;101669.69;5054527;28;20047;-62
2021/09/12 04:31:57;;;;;;;36.10;17.60;;;;;;;14.12;100.00;101672.16;5072636;28;20040;-62
2021/09/12 04:34:22;;;;;;;38.42;17.95;;;;;;;14.14;100.00;101675.47;5072064;28;20044;-62
2021/09/12 04:36:48;;;;;;;37.03;17.10;;;;;;;14.11;100.00;101682.09;5072265;28;20040;-61
2021/09/12 04:39:13;;;;;;;34.05;17.27;;;;;;;14.02;100.00;101683.25;5054490;28;20419;-62
2021/09/12 04:41:39;;;;;;;45.93;19.90;;;;;;;13.99;100.00;101681.81;5070951;28;20450;-61
2021/09/12 04:44:05;;;;;;;41.35;18.58;;;;;;;14.02;100.00;101694.00;5072515;28;20270;-61
2021/09/12 04:46:30;;;;;;;41.58;18.10;;;;;;;13.97;100.00;101694.63;5072271;28;20086;-62
2021/09/12 04:48:56;;;;;;;41.45;19.25;;;;;;;13.90;100.00;101699.09;5072385;28;20427;-62
2021/09/12 04:51:23;;;;;;;43.13;19.08;;;;;;;13.96;100.00;101701.03;5054008;28;20064;-61
2021/09/12 04:53:49;;;;;;;41.53;19.27;;;;;;;13.87;100.00;101707.56;5071857;28;20114;-61
2021/09/12 04:56:14;;;;;;;40.15;19.98;;;;;;;13.87;100.00;101705.72;5071623;28;20759;-60
2021/09/12 04:58:40;;;;;;;37.35;18.33;;;;;;;13.88;100.00;101704.69;5054283;28;20064;-61
2021/09/12 05:01:06;;;;;;;43.15;19.45;;;;;;;13.80;100.00;101702.13;5071971;28;20033;-62
2021/09/12 05:03:32;;;;;;;44.72;20.70;;;;;;;13.81;100.00;101719.94;5072447;28;20049;-61
2021/09/12 05:05:57;;;;;;;35.47;18.13;;;;;;;13.76;100.00;101725.06;5075942;28;20040;-61
2021/09/12 05:08:23;;;;;;;37.47;18.13;;;;;;;13.71;100.00;101719.44;5059766;28;20124;-61
2021/09/12 05:10:48;;;;;;;41.03;17.90;;;;;;;13.75;100.00;101723.41;5059153;28;20497;-62
2021/09/12 05:13:14;;;;;;;46.40;19.70;;;;;;;13.66;100.00;101719.22;5075757;28;20041;-61
2021/09/12 05:15:42;;;;;;;45.07;18.43;;;;;;;13.72;100.00;101721.13;5078199;28;20025;-62
2021/09/12 05:18:09;;;;;;;34.43;16.93;;;;;;;13.73;100.00;101722.78;5059037;28;20800;-62
2021/09/12 05:20:35;;;;;;;36.23;18.93;;;;;;;13.73;100.00;101723.63;5078761;28;20310;-62
2021/09/12 05:23:00;;;;;;;38.35;17.08;;;;;;;13.73;100.00;101723.63;5075716;28;20274;-62
2021/09/12 05:25:26;;;;;;;48.40;18.20;;;;;;;13.78;100.00;101720.31;5041264;28;20040;-62
2021/09/12 05:27:51;;;;;;;42.65;18.05;;;;;;;13.72;100.00;101727.31;5076077;28;20055;-61
2021/09/12 05:30:17;;;;;;;39.87;17.10;;;;;;;13.75;100.00;101715.34;5076133;28;20119;-64
2021/09/12 05:32:46;;;;;;;39.37;16.00;;;;;;;13.69;100.00;101711.56;5076155;28;20305;-63
2021/09/12 05:35:13;;;;;;;42.33;17.00;;;;;;;13.72;100.00;101718.44;5056979;28;20269;-59
2021/09/12 05:37:39;;;;;;;33.63;15.20;;;;;;;13.77;100.00;101721.34;5074994;28;20346;-62
2021/09/12 05:40:06;;;;;;;39.42;16.52;;;;;;;13.77;100.00;101724.88;5075143;28;20253;-63
2021/09/12 05:42:31;;;;;;;38.13;15.10;;;;;;;13.86;100.00;101722.88;5073415;28;20048;-62
2021/09/12 05:44:57;;;;;;;38.20;14.27;;;;;;;13.95;100.00;101720.03;5075165;28;20269;-61
2021/09/12 05:47:22;;;;;;;37.73;15.33;;;;;;;14.03;100.00;101722.56;5074702;28;20285;-62
2021/09/12 05:49:48;;;;;;;35.23;13.23;;;;;;;14.15;100.00;101734.44;5075096;28;20293;-62
2021/09/12 05:52:13;;;;;;;29.93;13.47;;;;;;;14.19;100.00;101729.53;5056845;28;20047;-61
2021/09/12 05:54:38;;;;;;;29.93;14.13;;;;;;;14.19;100.00;101726.84;5074671;28;20280;-62
2021/09/12 05:57:04;;;;;;;27.13;12.03;;;;;;;14.20;100.00;101726.63;5076548;28;20621;-62
2021/09/12 05:59:31;;;;;;;26.38;13.02;;;;;;;14.24;100.00;101715.44;5077158;28;20276;-61
2021/09/12 06:01:56;;;;;;;31.47;13.43;;;;;;;14.16;100.00;101719.97;5059515;28;20040;-61
2021/09/12 06:04:22;;;;;;;29.98;12.55;;;;;;;14.11;100.00;101729.66;5076966;28;20288;-62
2021/09/12 06:06:48;;;;;;;25.25;12.90;;;;;;;14.12;100.00;101725.94;5068256;28;20063;-61
2021/09/12 06:09:13;;;;;;;25.93;13.70;;;;;;;14.18;100.00;101725.13;5098679;28;20058;-62
2021/09/12 06:11:39;;;;;;;23.48;10.82;;;;;;;14.18;100.00;101725.13;5063533;28;20674;-62
2021/09/12 06:14:05;;;;;;;26.77;10.98;;;;;;;14.18;100.00;101725.13;5063745;28;20032;-61
2021/09/12 06:16:30;;;;;;;25.63;11.25;;;;;;;14.24;100.00;101728.91;5060139;28;20476;-62
2021/09/12 06:18:56;;;;;;;28.40;11.07;;;;;;;14.31;100.00;101719.03;5060138;28;20047;-62
2021/09/12 06:21:21;;;;;;;24.13;11.27;;;;;;;14.33;100.00;101720.47;5059640;28;20043;-62
2021/09/12 06:23:47;;;;;;;23.08;10.63;;;;;;;14.38;100.00;101717.19;5029065;28;20131;-62
2021/09/12 06:26:12;;;;;;;28.45;11.15;;;;;;;14.46;100.00;101735.84;5076914;28;20044;-61
2021/09/12 06:28:38;;;;;;;26.23;11.30;;;;;;;14.53;100.00;101729.66;5076373;28;20036;-62
2021/09/12 06:31:03;;;;;;;29.65;11.35;;;;;;;14.56;100.00;101737.38;5094376;28;20424;-63
2021/09/12 06:33:29;;;;;;;20.67;10.32;;;;;;;14.59;100.00;101736.97;5076461;28;20419;-62
2021/09/12 06:35:55;;;;;;;22.02;9.80;;;;;;;14.69;100.00;101731.22;5076321;28;20118;-62
2021/09/12 06:38:21;;;;;;;23.88;10.30;;;;;;;14.70;100.00;101731.00;5094073;28;20095;-61
2021/09/12 06:40:46;;;;;;;23.23;9.32;;;;;;;14.79;100.00;101733.56;5094140;28;20048;-62
2021/09/12 06:43:12;;;;;;;17.80;8.65;;;;;;;14.80;100.00;101729.84;5093999;28;20032;-62
2021/09/12 06:45:37;;;;;;;21.48;9.00;;;;;;;14.86;100.00;101726.31;5075603;28;20608;-61
2021/09/12 06:48:03;;;;;;;22.55;8.45;;;;;;;14.86;100.00;101737.09;5075991;28;20044;-62
2021/09/12 06:50:29;;;;;;;21.92;9.98;;;;;;;14.95;100.00;101738.56;5093319;28;20115;-62
2021/09/12 06:52:55;;;;;;;19.73;9.35;;;;;;;14.94;100.00;101728.81;5093543;28;20063;-61
2021/09/12 06:55:21;;;;;;;15.88;8.68;;;;;;;15.24;100.00;101720.41;5075428;28;20465;-60
2021/09/12 06:57:46;;;;;;;21.48;9.80;;;;;;;15.12;100.00;101724.72;5093598;28;20523;-62
2021/09/12 07:00:12;;;;;;;21.60;9.90;;;;;;;15.11;100.00;101723.06;5075436;28;20101;-61
2021/09/12 07:02:39;;;;;;;26.77;10.68;;;;;;;15.19;100.00;101722.88;5075169;28;20036;-64
2021/09/12 07:05:08;;;;;;;22.87;9.57;;;;;;;15.33;100.00;101716.47;5093510;28;20036;-62
2021/09/12 07:07:34;;;;;;;28.20;9.87;;;;;;;15.34;100.00;101718.13;5058365;28;20036;-62
2021/09/12 07:09:59;;;;;;;24.73;11.00;;;;;;;15.38;100.00;101715.88;5093963;28;20036;-62
2021/09/12 07:12:26;;;;;;;22.98;10.60;;;;;;;16.31;100.00;101718.69;5093670;28;20073;-60
2021/09/12 07:14:51;;;;;;;;;;;;;;;15.62;100.00;101730.59;5075749;28;20062;-62
2021/09/12 07:17:16;;;;;;;27.60;12.70;;;;;;;15.71;100.00;101730.38;5093233;28;20002;-62
2021/09/12 07:19:42;;;;;;;30.52;11.63;;;;;;;15.95;100.00;101730.81;5092911;28;20036;-61
2021/09/12 07:22:08;;;;;;;21.40;10.65;;;;;;;16.12;100.00;101726.63;5075024;28;20103;-61
2021/09/12 07:24:34;;;;;;;21.70;10.55;;;;;;;16.33;100.00;101730.94;5066607;28;20074;-62
2021/09/12 07:26:59;;;;;;;33.75;11.40;;;;;;;16.34;100.00;101745.25;5074739;28;20388;-62
2021/09/12 07:29:25;;;;;;;25.75;10.85;;;;;;;16.36;100.00;101740.47;5092835;28;20435;-62
2021/09/12 07:31:51;;;;;;;28.52;10.75;;;;;;;16.50;100.00;101741.28;5056076;28;20040;-62
2021/09/12 07:34:17;;;;;;;31.90;11.70;;;;;;;16.41;100.00;101737.97;5072656;28;20037;-62
2021/09/12 07:36:42;;;;;;;25.27;11.82;;;;;;;16.47;100.00;101741.69;5072742;28;20055;-62
2021/09/12 07:39:08;;;;;;;27.00;12.82;;;;;;;16.42;100.00;101736.94;5091226;28;20044;-62
2021/09/12 07:41:34;;;;;;;;;;;;;;;16.47;100.00;101731.72;5093211;28;20127;-62
2021/09/12 07:44:00;;;;;;;23.07;10.50;;;;;;;16.56;100.00;101731.47;5092792;28;20356;-62
2021/09/12 07:46:25;;;;;;;27.60;10.73;;;;;;;16.44;100.00;101732.16;5092536;28;20039;-60
2021/09/12 07:48:51;;;;;;;22.00;9.93;;;;;;;16.55;100.00;101735.22;5043250;28;20139;-62
2021/09/12 07:51:17;;;;;;;23.70;10.80;;;;;;;16.63;100.00;101745.78;5072344;28;20036;-61
2021/09/12 07:53:42;;;;;;;24.45;11.82;;;;;;;16.78;100.00;101740.94;5054019;28;20037;-61
2021/09/12 07:56:08;;;;;;;29.50;13.35;;;;;;;16.70;100.00;101740.34;5054424;28;20056;-62
2021/09/12 07:58:33;;;;;;;24.63;12.18;;;;;;;16.76;100.00;101747.59;5071918;28;20080;-61
2021/09/12 08:00:59;;;;;;;26.00;10.85;;;;;;;16.90;100.00;101751.88;5072371;28;20412;-62
2021/09/12 08:03:24;;;;;;;24.50;11.57;;;;;;;16.91;100.00;101747.31;5054497;28;20036;-61
2021/09/12 08:05:50;;;;;;;23.35;10.90;;;;;;;16.87;100.00;101755.03;5072223;28;20056;-62
2021/09/12 08:08:15;;;;;;;25.23;10.43;;;;;;;16.99;100.00;101747.09;5072738;28;20422;-62
2021/09/12 08:10:41;;;;;;;24.27;11.23;;;;;;;17.14;100.00;101749.50;5072411;28;20131;-61
2021/09/12 08:13:06;;;;;;;28.15;12.48;;;;;;;17.36;100.00;101748.34;5071725;28;20075;-62
2021/09/12 08:15:32;;;;;;;22.45;10.88;;;;;;;17.37;100.00;101755.41;5083541;28;20050;-62
2021/09/12 08:17:57;;;;;;;31.40;12.90;;;;;;;17.37;100.00;101761.63;5054412;28;20033;-62
2021/09/12 08:20:23;;;;;;;27.70;11.20;;;;;;;17.42;100.00;101769.09;5072310;28;20053;-61
2021/09/12 08:22:48;;;;;;;21.65;10.73;;;;;;;17.52;100.00;101768.59;5054350;28;20118;-62
2021/09/12 08:25:14;;;;;;;24.48;10.55;;;;;;;17.66;100.00;101775.56;5052344;28;20040;-61
2021/09/12 08:27:40;;;;;;;22.73;10.63;;;;;;;17.82;100.00;101787.72;5092295;28;20051;-61
2021/09/12 08:30:06;;;;;;;23.55;11.02;;;;;;;17.66;100.00;101782.84;5092654;28;20040;-62
2021/09/12 08:32:33;;;;;;;22.80;10.90;;;;;;;17.64;100.00;101785.75;5092546;28;20071;-62
2021/09/12 08:34:58;;;;;;;;;;;;;;;17.70;100.00;101782.19;5092815;28;20131;-61
2021/09/12 08:37:24;;;;;;;29.13;10.00;;;;;;;17.56;100.00;101786.88;5076278;28;20006;-62
2021/09/12 08:39:49;;;;;;;25.60;10.77;;;;;;;17.65;100.00;101786.59;5056750;28;20068;-63
2021/09/12 08:42:17;;;;;;;18.88;10.52;;;;;;;17.87;100.00;101787.88;5076155;28;20044;-62
2021/09/12 08:44:49;;;;;;;23.17;11.90;;;;;;;17.91;100.00;101791.78;5075679;28;20097;-61
2021/09/12 08:47:16;;;;;;;26.27;10.13;;;;;;;17.88;100.00;101784.13;5057887;28;20041;-62
2021/09/12 08:49:43;;;;;;;25.70;11.10;;;;;;;18.05;100.00;101789.81;5075805;28;20032;-62
2021/09/12 08:52:10;;;;;;;23.23;10.20;;;;;;;18.12;100.00;101788.97;5058133;28;20064;-62
2021/09/12 08:54:37;;;;;;;19.50;9.20;;;;;;;18.28;100.00;101790.25;5075330;28;20036;-61
2021/09/12 08:57:03;;;;;;;24.67;10.90;;;;;;;18.54;100.00;101797.25;5040897;28;20094;-62
2021/09/12 08:59:31;;;;;;;22.77;10.93;;;;;;;18.41;100.00;101786.56;5057656;28;20044;-62
2021/09/12 09:01:58;;;;;;;22.90;11.00;;;;;;;18.23;100.00;101790.91;5057934;28;20151;-62
2021/09/12 09:04:29;;;;;;;22.20;11.07;;;;;;;18.22;100.00;101796.53;5075608;28;20025;-63
2021/09/12 09:07:03;;;;;;;26.50;11.33;;;;;;;18.09;100.00;101789.38;5057227;28;20036;-63
2021/09/12 09:09:46;;;;;;;22.60;10.87;;;;;;;18.06;100.00;101790.66;5057619;28;20039;-62
2021/09/12 09:12:28;;;;;;;22.63;11.73;;;;;;;18.18;100.00;101791.56;5057346;28;20090;-62
2021/09/12 09:15:00;;;;;;;31.40;12.63;;;;;;;18.32;100.00;101799.56;5080430;28;20115;-61
2021/09/12 09:17:26;;;;;;;28.30;12.17;;;;;;;18.28;100.00;101788.34;5072156;28;20043;-61
2021/09/12 09:19:52;;;;;;;32.03;12.20;;;;;;;18.28;100.00;101782.94;5066513;28;20399;-62
2021/09/12 09:22:32;;;;;;;23.80;10.83;;;;;;;18.36;100.00;101791.84;5067850;28;20037;-61
2021/09/12 09:24:59;;;;;;;21.77;11.53;;;;;;;18.43;100.00;101789.88;5067352;28;20067;-62
2021/09/12 09:27:24;;;;;;;22.50;13.13;;;;;;;18.40;100.00;101801.16;5083880;28;20032;-61
2021/09/12 09:29:54;;;;;;;28.95;11.98;;;;;;;18.26;100.00;101795.88;5058173;28;20037;-62
2021/09/12 09:32:20;;;;;;;24.80;12.10;;;;;;;18.46;100.00;101784.84;5065441;28;20040;-62
2021/09/12 09:34:45;;;;;;;28.63;13.23;;;;;;;18.74;100.00;101790.78;5085151;28;20024;-61
2021/09/12 09:37:15;;;;;;;25.00;12.60;;;;;;;18.84;100.00;101784.81;5084412;28;20062;-61
2021/09/12 09:39:50;;;;;;;27.23;12.83;;;;;;;18.72;100.00;101793.72;5065187;28;20472;-61
2021/09/12 09:42:36;;;;;;;27.27;13.07;;;;;;;18.71;100.00;101780.38;5049379;28;20067;-62
2021/09/12 09:45:07;;;;;;;25.53;13.50;;;;;;;18.84;100.00;101791.06;5056608;28;20040;-60
2021/09/12 09:47:33;;;;;;;30.50;13.97;;;;;;;19.09;100.00;101786.59;5066239;28;20093;-62
2021/09/12 09:50:10;;;;;;;28.05;12.70;;;;;;;19.16;100.00;101792.78;5066635;28;20032;-62
2021/09/12 09:52:41;;;;;;;30.03;14.80;;;;;;;19.34;100.00;101791.88;5084835;28;20093;-62
2021/09/12 09:55:08;;;;;;;31.40;16.47;;;;;;;19.47;100.00;101780.81;5083503;28;20033;-62
2021/09/12 09:57:34;;;;;;;32.67;16.43;;;;;;;19.64;100.00;101796.44;5065810;28;20157;-61
2021/09/12 10:00:00;;;;;;;;;;;;;;;19.60;100.00;101798.78;5085283;28;20092;-62
2021/09/12 10:02:26;;;;;;;31.20;15.53;;;;;;;19.51;100.00;101783.91;5083182;28;19920;-61
2021/09/12 10:04:52;;;;;;;40.13;17.90;;;;;;;19.42;100.00;101796.16;5083783;28;20113;-61
2021/09/12 10:07:20;;;;;;;33.80;17.98;;;;;;;19.71;100.00;101790.91;5058888;28;20067;-60
2021/09/12 10:09:46;;;;;;;33.40;16.97;;;;;;;19.82;100.00;101794.69;5087326;28;20082;-60
2021/09/12 10:12:13;;;;;;;34.13;15.93;;;;;;;19.70;100.00;101787.34;5072179;28;20032;-59
2021/09/12 10:14:49;;;;;;;34.37;16.90;;;;;;;19.95;100.00;101790.97;5063698;28;20461;-61
2021/09/12 10:17:20;;;;;;;32.90;16.40;;;;;;;19.94;100.00;101792.84;5076426;28;20047;-61
2021/09/12 10:19:46;;;;;;;37.07;16.43;;;;;;;19.67;100.00;101798.69;5076090;28;20537;-62
2021/09/12 10:22:12;;;;;;;38.55;17.10;;;;;;;19.41;100.00;101791.78;5075743;28;20047;-61
2021/09/12 10:25:00;;;;;;;30.73;15.53;;;;;;;19.48;100.00;101796.03;5092236;28;20036;-61
2021/09/12 10:27:39;;;;;;;;;;;;;;;19.57;100.00;101793.81;5074236;28;20048;-60
2021/09/12 10:30:37;;;;;;;27.10;15.10;;;;;;;19.70;100.00;101786.53;5072483;28;19916;-60
2021/09/12 10:33:09;;;;;;;36.00;15.83;;;;;;;19.87;100.00;101800.25;5054212;28;20050;-60
2021/09/12 10:36:02;;;;;;;38.90;17.17;;;;;;;19.81;100.00;101793.84;5072249;28;20480;-62
2021/09/12 10:38:30;;;;;;;37.17;17.93;;;;;;;19.87;100.00;101790.22;5073313;28;20047;-61
2021/09/12 10:40:55;;;;;;;36.57;16.47;;;;;;;20.00;100.00;101794.63;5073404;28;20372;-61
2021/09/12 10:43:27;;;;;;;34.00;16.10;;;;;;;20.32;100.00;101788.00;5073448;28;20044;-62
2021/09/12 10:46:05;;;;;;;33.40;16.23;;;;;;;20.37;100.00;101785.41;5055359;28;21301;-62
2021/09/12 10:48:33;;;;;;;34.27;17.33;;;;;;;20.45;100.00;101793.16;5073651;28;20434;-62
2021/09/12 10:51:00;;;;;;;44.00;17.97;;;;;;;20.77;100.00;101784.59;5038842;28;20093;-61
2021/09/12 10:56:12;;;;;;;31.67;16.77;;;;;;;20.88;100.00;101791.09;5073141;28;20029;-62
2021/09/12 10:58:38;;;;;;;29.50;17.07;;;;;;;20.57;100.00;101786.91;5073017;28;20488;-61
2021/09/12 11:01:06;;;;;;;37.78;16.67;;;;;;;20.91;100.00;101789.78;5072374;28;20048;-61
2021/09/12 11:03:33;;;;;;;33.80;17.47;;;;;;;21.00;100.00;101793.78;5073345;28;20064;-61
2021/09/12 11:05:59;;;;;;;36.43;17.17;;;;;;;20.97;100.00;101788.78;5054560;28;20041;-60
2021/09/12 11:08:38;;;;;;;28.05;17.08;;;;;;;21.05;100.00;101790.31;5086135;28;20032;-62